Time;durP1;ratioP1;P1;durP2;ratioP2;P2;SDS_P1;SDS_P2;PMS_P1;PMS_P2;Temp;Humidity;BMP_temperature;BMP_pressure;BME280_temperature;BME280_humidity;BME280_pressure;Samples;Min_cycle;Max_cycle;Signal;HPM_P1;HPM_P2
2021/06/13 00:00:24;;;;;;;7.43;3.17;;;16.40;74.30;;;;;;5012740;28;20521;-73
2021/06/13 00:03:08;;;;;;;7.47;3.28;;;16.40;74.30;;;;;;5008916;28;20052;-76
2021/06/13 00:05:52;;;;;;;8.35;2.80;;;16.40;74.10;;;;;;5012051;28;20045;-76
2021/06/13 00:08:36;;;;;;;7.80;3.10;;;16.40;73.70;;;;;;5014445;28;20057;-76
2021/06/13 00:11:21;;;;;;;8.32;2.95;;;16.30;73.70;;;;;;5014737;28;20292;-75
2021/06/13 00:14:05;;;;;;;11.05;2.88;;;16.30;74.20;;;;;;5031613;28;20037;-75
2021/06/13 00:16:49;;;;;;;7.93;2.78;;;16.30;73.80;;;;;;5017331;28;20037;-75
2021/06/13 00:19:34;;;;;;;7.25;2.67;;;16.30;73.50;;;;;;5013075;28;20346;-75
2021/06/13 00:22:17;;;;;;;6.35;2.78;;;16.30;73.50;;;;;;5002803;28;20495;-76
2021/06/13 00:25:03;;;;;;;9.83;3.17;;;16.20;73.20;;;;;;4999675;28;20045;-75
2021/06/13 00:27:47;;;;;;;11.10;3.00;;;16.20;73.10;;;;;;4994410;28;20489;-76
2021/06/13 00:30:31;;;;;;;12.23;3.20;;;16.20;72.80;;;;;;5008032;28;20037;-76
2021/06/13 00:33:16;;;;;;;9.00;3.38;;;16.20;72.50;;;;;;5014306;28;20037;-76
2021/06/13 00:36:00;;;;;;;6.97;3.05;;;16.10;72.40;;;;;;5012845;28;20041;-80
2021/06/13 00:38:44;;;;;;;7.10;2.97;;;16.10;72.50;;;;;;5012990;28;20493;-82
2021/06/13 00:41:28;;;;;;;7.47;3.05;;;16.10;72.40;;;;;;5011052;28;20045;-79
2021/06/13 00:44:12;;;;;;;6.57;2.60;;;16.00;72.10;;;;;;4997649;28;20683;-79
2021/06/13 00:46:56;;;;;;;5.80;2.63;;;16.00;72.00;;;;;;5013893;28;20044;-79
2021/06/13 00:49:40;;;;;;;11.00;2.85;;;15.90;71.90;;;;;;5006423;28;20513;-79
2021/06/13 00:52:26;;;;;;;8.40;2.40;;;15.80;71.50;;;;;;4996939;28;20096;-77
2021/06/13 00:55:10;;;;;;;6.47;2.83;;;15.90;71.40;;;;;;4993926;28;20045;-78
2021/06/13 00:57:55;;;;;;;9.18;2.75;;;15.80;70.80;;;;;;5001444;28;20117;-79
2021/06/13 01:00:39;;;;;;;9.75;3.20;;;15.80;71.10;;;;;;5013030;28;20041;-78
2021/06/13 01:03:24;;;;;;;6.80;2.50;;;15.70;70.80;;;;;;5014311;28;20556;-78
2021/06/13 01:06:08;;;;;;;10.25;3.17;;;15.70;70.80;;;;;;5010044;28;20402;-79
2021/06/13 01:09:01;;;;;;;6.95;2.88;;;15.70;70.40;;;;;;4996349;28;20506;-78
2021/06/13 01:12:10;;;;;;;10.18;2.72;;;15.70;70.50;;;;;;5014779;28;20033;-78
2021/06/13 01:15:01;;;;;;;14.25;3.13;;;15.70;70.20;;;;;;5011705;28;20048;-79
2021/06/13 01:18:00;;;;;;;5.65;2.45;;;15.70;70.00;;;;;;4994432;28;20033;-78
2021/06/13 01:20:48;;;;;;;6.07;2.38;;;15.70;70.00;;;;;;5002532;28;20556;-79
2021/06/13 01:24:06;;;;;;;8.00;2.97;;;15.60;70.00;;;;;;5013406;28;20048;-77
2021/06/13 01:27:03;;;;;;;6.70;2.58;;;15.50;69.80;;;;;;4993684;28;20037;-79
2021/06/13 01:29:48;;;;;;;9.50;2.60;;;15.50;70.00;;;;;;5001558;28;20423;-77
2021/06/13 01:32:33;;;;;;;7.57;2.83;;;15.50;70.20;;;;;;5012561;28;20092;-79
2021/06/13 01:35:22;;;;;;;13.98;2.65;;;15.50;70.30;;;;;;5012230;28;20099;-78
2021/06/13 01:38:10;;;;;;;6.97;2.60;;;15.50;70.60;;;;;;5011202;28;20076;-77
2021/06/13 01:40:59;;;;;;;7.47;2.63;;;15.50;71.40;;;;;;5015114;28;20048;-78
2021/06/13 01:43:44;;;;;;;14.07;3.53;;;15.50;71.10;;;;;;5021462;28;20025;-78
2021/06/13 01:46:31;;;;;;;;;;;15.50;71.30;;;;;;5002677;28;20041;-77
2021/06/13 01:49:17;;;;;;;7.10;2.80;;;15.50;71.40;;;;;;5006440;28;19924;-77
2021/06/13 01:52:02;;;;;;;8.40;2.50;;;15.50;71.80;;;;;;5003298;28;20025;-78
2021/06/13 01:54:48;;;;;;;9.57;2.85;;;15.40;71.80;;;;;;5022089;28;20052;-79
2021/06/13 01:57:33;;;;;;;9.65;3.17;;;15.40;71.90;;;;;;5021632;28;20044;-78
2021/06/13 02:00:19;;;;;;;4.97;2.40;;;15.40;72.00;;;;;;5025739;28;20037;-79
2021/06/13 02:03:05;;;;;;;5.95;2.30;;;15.40;72.00;;;;;;5013253;28;20082;-79
2021/06/13 02:05:52;;;;;;;5.38;2.20;;;15.30;72.10;;;;;;5002545;28;20037;-79
2021/06/13 02:08:37;;;;;;;10.40;2.88;;;15.30;72.40;;;;;;5017044;28;20060;-78
2021/06/13 02:11:23;;;;;;;6.07;2.83;;;15.30;72.50;;;;;;5036389;28;20065;-80
2021/06/13 02:14:09;;;;;;;7.03;2.38;;;15.30;72.40;;;;;;5018081;28;20029;-77
2021/06/13 02:16:54;;;;;;;8.02;2.88;;;15.30;72.50;;;;;;5013692;28;20096;-77
2021/06/13 02:19:42;;;;;;;9.35;2.80;;;15.20;72.50;;;;;;4994675;28;20037;-77
2021/06/13 02:22:26;;;;;;;7.25;2.45;;;15.20;72.40;;;;;;4997274;28;20037;-79
2021/06/13 02:25:11;;;;;;;7.17;2.87;;;15.20;72.40;;;;;;5012697;28;20033;-77
2021/06/13 02:28:00;;;;;;;8.48;2.63;;;15.20;72.40;;;;;;5010557;28;20049;-78
2021/06/13 02:30:48;;;;;;;7.88;3.20;;;15.20;72.40;;;;;;5017124;28;20041;-77
2021/06/13 02:33:33;;;;;;;7.97;3.30;;;15.20;72.70;;;;;;5011040;28;20304;-75
2021/06/13 02:36:18;;;;;;;7.78;3.13;;;15.20;72.70;;;;;;5011987;28;20084;-77
2021/06/13 02:39:04;;;;;;;6.78;2.97;;;15.20;72.60;;;;;;5013241;28;20165;-76
2021/06/13 02:41:49;;;;;;;7.75;2.88;;;15.20;72.80;;;;;;5013977;28;20045;-78
2021/06/13 02:44:33;;;;;;;7.13;2.80;;;15.20;72.70;;;;;;5006545;28;20041;-76
2021/06/13 02:47:18;;;;;;;9.23;3.00;;;15.20;72.90;;;;;;4994416;28;20072;-77
2021/06/13 02:50:06;;;;;;;8.67;2.27;;;15.20;72.90;;;;;;5011879;28;20092;-77
2021/06/13 02:53:12;;;;;;;8.75;2.60;;;15.20;72.90;;;;;;5019163;28;20413;-76
2021/06/13 02:56:08;;;;;;;11.32;2.65;;;15.20;73.00;;;;;;5011884;28;20504;-76
2021/06/13 02:58:53;;;;;;;6.32;2.40;;;15.20;73.00;;;;;;5009953;28;20040;-77
2021/06/13 03:01:43;;;;;;;9.50;3.17;;;15.10;73.30;;;;;;5011652;28;20389;-76
2021/06/13 03:04:27;;;;;;;9.60;2.83;;;15.10;73.40;;;;;;5015474;28;20096;-75
2021/06/13 03:07:16;;;;;;;7.13;2.28;;;15.10;73.40;;;;;;5027328;28;20120;-79
2021/06/13 03:10:02;;;;;;;8.60;2.75;;;15.10;73.50;;;;;;5013682;28;20065;-80
2021/06/13 03:12:47;;;;;;;10.25;2.72;;;15.10;73.70;;;;;;5006812;28;20041;-77
2021/06/13 03:15:33;;;;;;;6.28;2.72;;;15.00;74.00;;;;;;5016358;28;20133;-79
2021/06/13 03:18:18;;;;;;;9.55;3.03;;;14.90;74.60;;;;;;5015213;28;20459;-81
2021/06/13 03:21:04;;;;;;;5.18;2.63;;;14.90;74.50;;;;;;5016074;28;20445;-78
2021/06/13 03:23:48;;;;;;;5.05;2.30;;;14.90;74.50;;;;;;5013336;28;20044;-77
2021/06/13 03:26:35;;;;;;;11.95;3.03;;;14.90;75.00;;;;;;4996610;28;20574;-75
2021/06/13 03:29:20;;;;;;;8.80;2.70;;;14.80;75.00;;;;;;5014772;28;20099;-77
2021/06/13 03:32:05;;;;;;;;;;;14.70;75.40;;;;;;5014243;28;20284;-76
2021/06/13 03:34:49;;;;;;;5.28;2.53;;;14.80;76.00;;;;;;4996057;28;19912;-79
2021/06/13 03:37:34;;;;;;;9.50;3.42;;;14.80;75.70;;;;;;4996934;28;20042;-76
2021/06/13 03:40:19;;;;;;;;;;;14.70;76.10;;;;;;5008667;28;20108;-77
2021/06/13 03:43:03;;;;;;;10.07;2.90;;;14.70;76.50;;;;;;5014680;28;20590;-78
2021/06/13 03:45:49;;;;;;;9.10;3.38;;;14.70;76.30;;;;;;5016031;28;20076;-78
2021/06/13 03:48:34;;;;;;;8.40;3.67;;;14.80;76.50;;;;;;5013716;28;20184;-76
2021/06/13 03:51:02;;;;;;;9.60;2.63;;;14.70;76.50;;;;;;4997295;28;20041;-76
2021/06/13 03:53:47;;;;;;;8.25;2.70;;;14.80;76.90;;;;;;4995999;28;20390;-76
2021/06/13 03:56:45;;;;;;;6.40;3.03;;;14.70;77.00;;;;;;5008595;28;20080;-76
2021/06/13 03:59:30;;;;;;;8.05;2.58;;;14.80;77.30;;;;;;4996024;28;20124;-75
2021/06/13 04:02:14;;;;;;;;;;;14.80;77.50;;;;;;4998791;28;20025;-76
2021/06/13 04:05:00;;;;;;;7.78;2.30;;;14.80;77.20;;;;;;5014400;28;19928;-77
2021/06/13 04:07:45;;;;;;;8.63;2.90;;;14.90;77.50;;;;;;5010753;28;20103;-77
2021/06/13 04:10:30;;;;;;;8.60;3.03;;;14.90;77.50;;;;;;5014656;28;20096;-78
2021/06/13 04:13:15;;;;;;;11.85;3.10;;;14.90;77.50;;;;;;5012360;28;20080;-77
2021/06/13 04:16:04;;;;;;;7.82;3.40;;;15.00;77.50;;;;;;5014906;28;20091;-77
2021/06/13 04:18:49;;;;;;;11.00;3.13;;;15.10;77.40;;;;;;5013105;28;20076;-76
2021/06/13 04:21:34;;;;;;;7.95;2.55;;;15.20;77.30;;;;;;5014504;28;20029;-77
2021/06/13 04:24:20;;;;;;;9.90;3.20;;;15.30;76.90;;;;;;5014275;28;20403;-76
2021/06/13 04:27:06;;;;;;;8.63;2.88;;;15.40;76.90;;;;;;5012734;28;20060;-76
2021/06/13 04:29:50;;;;;;;9.02;3.05;;;15.50;76.70;;;;;;5014179;28;20045;-76
2021/06/13 04:32:35;;;;;;;9.07;2.93;;;15.50;76.30;;;;;;5013191;28;20044;-77
2021/06/13 04:35:19;;;;;;;7.80;2.83;;;15.40;76.00;;;;;;5013809;28;20319;-75
2021/06/13 04:38:03;;;;;;;7.93;2.85;;;15.40;76.30;;;;;;5011919;28;20057;-74
2021/06/13 04:40:47;;;;;;;9.18;3.17;;;15.40;76.50;;;;;;4996324;28;20040;-75
2021/06/13 04:43:33;;;;;;;13.90;3.55;;;15.40;76.40;;;;;;5006612;28;20037;-76
2021/06/13 04:46:21;;;;;;;10.63;3.03;;;15.50;75.80;;;;;;5013794;28;20033;-76
2021/06/13 04:49:05;;;;;;;7.80;2.60;;;15.50;76.10;;;;;;4994750;28;20513;-76
2021/06/13 04:51:54;;;;;;;5.72;2.58;;;15.50;75.80;;;;;;5000093;28;20072;-80
2021/06/13 04:54:48;;;;;;;6.07;2.70;;;15.60;75.80;;;;;;5010718;28;20040;-78
2021/06/13 04:57:56;;;;;;;8.38;2.65;;;15.50;75.80;;;;;;5011659;28;20044;-77
2021/06/13 05:00:40;;;;;;;10.57;3.60;;;15.50;75.70;;;;;;5014062;28;20080;-79
2021/06/13 05:03:24;;;;;;;9.68;2.70;;;15.60;75.40;;;;;;5012317;28;20549;-76
2021/06/13 05:06:09;;;;;;;9.85;2.42;;;15.60;75.60;;;;;;5002053;28;20042;-75
2021/06/13 05:08:53;;;;;;;7.22;2.42;;;15.60;75.70;;;;;;5023209;28;20052;-80
2021/06/13 05:11:37;;;;;;;10.80;2.70;;;15.70;75.60;;;;;;4994101;28;20085;-78
2021/06/13 05:14:21;;;;;;;8.95;3.20;;;15.70;75.40;;;;;;4994658;28;20034;-78
2021/06/13 05:17:06;;;;;;;10.07;2.58;;;15.70;75.50;;;;;;4996416;28;20053;-77
2021/06/13 05:19:50;;;;;;;6.85;2.55;;;15.80;75.50;;;;;;5014821;28;20386;-78
2021/06/13 05:22:55;;;;;;;6.82;2.90;;;15.90;75.50;;;;;;4998267;28;20044;-79
2021/06/13 05:25:40;;;;;;;7.15;2.90;;;15.80;75.00;;;;;;5013588;28;20052;-77
2021/06/13 05:28:24;;;;;;;6.47;3.37;;;15.80;75.10;;;;;;5025273;28;20048;-77
2021/06/13 05:31:08;;;;;;;7.35;3.20;;;15.80;75.70;;;;;;5013976;28;20033;-78
2021/06/13 05:33:53;;;;;;;8.77;3.20;;;15.80;75.10;;;;;;5012118;28;20041;-77
2021/06/13 05:36:38;;;;;;;11.55;2.90;;;15.80;75.00;;;;;;5013563;28;20087;-76
2021/06/13 05:39:22;;;;;;;9.40;2.72;;;15.90;75.00;;;;;;5012683;28;20037;-75
2021/06/13 05:42:06;;;;;;;8.25;2.53;;;15.90;74.90;;;;;;5012339;28;20096;-76
2021/06/13 05:44:50;;;;;;;7.68;2.72;;;16.00;74.80;;;;;;5013784;28;20044;-74
2021/06/13 05:47:34;;;;;;;8.82;2.40;;;16.10;74.80;;;;;;5018848;28;20080;-75
2021/06/13 05:50:19;;;;;;;10.57;2.70;;;16.20;74.50;;;;;;5006037;28;20470;-78
2021/06/13 05:53:05;;;;;;;10.43;2.85;;;16.20;74.20;;;;;;4996069;28;20169;-75
2021/06/13 05:55:49;;;;;;;8.88;2.70;;;16.20;74.20;;;;;;5006539;28;20084;-78
2021/06/13 05:58:33;;;;;;;6.32;2.53;;;16.30;74.20;;;;;;5007630;28;20033;-81
2021/06/13 06:01:17;;;;;;;9.18;2.65;;;16.30;74.00;;;;;;5013913;28;20044;-78
2021/06/13 06:04:01;;;;;;;11.90;2.83;;;16.40;74.10;;;;;;5010564;28;20111;-78
2021/06/13 06:06:45;;;;;;;5.35;2.80;;;16.40;74.00;;;;;;4992711;28;20237;-82
2021/06/13 06:09:29;;;;;;;6.72;2.63;;;16.50;73.80;;;;;;4993671;28;20053;-81
2021/06/13 06:12:13;;;;;;;8.73;2.83;;;16.60;73.60;;;;;;4993622;28;20111;-78
2021/06/13 06:14:40;;;;;;;4.85;2.05;;;16.60;73.40;;;;;;5010427;28;20081;-80
2021/06/13 06:17:06;;;;;;;8.25;2.95;;;16.60;73.80;;;;;;5006060;28;20113;-77
2021/06/13 06:19:32;;;;;;;8.20;2.60;;;16.70;74.00;;;;;;5007617;28;20132;-74
2021/06/13 06:21:57;;;;;;;6.32;2.50;;;16.80;73.40;;;;;;5007540;28;20382;-74
2021/06/13 06:24:23;;;;;;;10.45;3.42;;;16.90;72.80;;;;;;5012289;28;20040;-76
2021/06/13 06:26:49;;;;;;;7.07;3.05;;;16.90;72.40;;;;;;5010396;28;20033;-76
2021/06/13 06:29:14;;;;;;;6.88;2.58;;;16.90;72.10;;;;;;5010111;28;20038;-77
2021/06/13 06:31:40;;;;;;;7.22;3.13;;;17.00;72.30;;;;;;5011192;28;20455;-79
2021/06/13 06:34:06;;;;;;;8.35;2.78;;;17.10;72.10;;;;;;5011237;28;20065;-77
2021/06/13 06:36:32;;;;;;;6.45;2.88;;;17.10;71.60;;;;;;5006686;28;20018;-76
2021/06/13 06:39:17;;;;;;;6.72;2.67;;;17.10;71.40;;;;;;5011300;28;20107;-77
2021/06/13 06:42:01;;;;;;;9.90;3.05;;;17.20;70.90;;;;;;5008758;28;20045;-77
2021/06/13 06:44:45;;;;;;;9.77;2.78;;;17.20;70.40;;;;;;4992578;28;20053;-76
2021/06/13 06:47:28;;;;;;;11.65;2.95;;;17.20;70.70;;;;;;5007822;28;20036;-77
2021/06/13 06:50:13;;;;;;;10.95;3.42;;;17.30;70.60;;;;;;5012322;28;20080;-77
2021/06/13 06:52:58;;;;;;;7.10;2.83;;;17.40;70.50;;;;;;5011201;28;20072;-73
2021/06/13 06:55:41;;;;;;;8.60;3.85;;;17.40;70.40;;;;;;4999754;28;20101;-76
2021/06/13 06:58:07;;;;;;;9.25;2.63;;;17.50;69.90;;;;;;5010467;28;20022;-76
2021/06/13 07:00:32;;;;;;;10.93;3.30;;;17.50;69.80;;;;;;5004498;28;20096;-78
2021/06/13 07:02:58;;;;;;;7.95;2.40;;;17.50;69.30;;;;;;5005777;28;20045;-77
2021/06/13 07:05:24;;;;;;;8.13;2.58;;;17.50;69.60;;;;;;5010985;28;20117;-77
2021/06/13 07:08:08;;;;;;;10.18;2.80;;;17.60;69.40;;;;;;5011040;28;20493;-78
2021/06/13 07:10:52;;;;;;;7.20;2.88;;;17.70;69.10;;;;;;5008995;28;20053;-76
2021/06/13 07:13:36;;;;;;;9.38;3.00;;;17.70;68.80;;;;;;5002360;28;20461;-76
2021/06/13 07:16:21;;;;;;;12.43;2.63;;;17.80;68.90;;;;;;5010921;28;20040;-79
2021/06/13 07:19:05;;;;;;;9.20;2.80;;;17.90;69.10;;;;;;5009974;28;20092;-76
2021/06/13 07:21:50;;;;;;;7.50;2.50;;;17.90;68.00;;;;;;5009323;28;20040;-77
2021/06/13 07:24:34;;;;;;;;;;;18.00;67.00;;;;;;5006409;28;20087;-77
2021/06/13 07:27:19;;;;;;;6.13;2.45;;;18.00;67.10;;;;;;5010108;28;19936;-78
2021/06/13 07:30:05;;;;;;;7.68;2.30;;;18.00;66.90;;;;;;5010351;28;20041;-77
2021/06/13 07:32:50;;;;;;;6.68;2.25;;;18.20;66.40;;;;;;5008235;28;20553;-77
2021/06/13 07:35:34;;;;;;;6.47;2.00;;;18.30;65.90;;;;;;5011452;28;20045;-79
2021/06/13 07:38:19;;;;;;;6.85;2.28;;;18.50;66.70;;;;;;5015210;28;20104;-78
2021/06/13 07:41:03;;;;;;;7.57;2.53;;;18.60;65.40;;;;;;5008043;28;20500;-77
2021/06/13 07:43:47;;;;;;;5.55;1.88;;;18.80;64.30;;;;;;4997977;28;20654;-76
2021/06/13 07:46:35;;;;;;;5.63;2.50;;;18.90;63.70;;;;;;5010584;28;20413;-78
2021/06/13 07:49:19;;;;;;;6.55;2.53;;;18.90;63.00;;;;;;5012573;28;20567;-75
2021/06/13 07:52:03;;;;;;;6.37;2.83;;;18.90;62.90;;;;;;5012647;28;20032;-79
2021/06/13 07:54:47;;;;;;;6.90;2.58;;;18.90;62.40;;;;;;5003707;28;20041;-78
2021/06/13 07:57:32;;;;;;;8.23;2.53;;;18.80;61.60;;;;;;5014112;28;20041;-77
2021/06/13 08:00:19;;;;;;;7.72;2.50;;;18.70;61.60;;;;;;5010695;28;20060;-78
2021/06/13 08:03:03;;;;;;;7.80;2.70;;;18.70;62.10;;;;;;5014012;28;20057;-78
2021/06/13 08:05:47;;;;;;;6.60;2.17;;;18.70;61.80;;;;;;5014019;28;20524;-78
2021/06/13 08:08:31;;;;;;;7.20;2.47;;;18.60;61.90;;;;;;5018743;28;20053;-77
2021/06/13 08:11:16;;;;;;;5.95;2.63;;;18.60;62.50;;;;;;5013420;28;20049;-78
2021/06/13 08:14:00;;;;;;;8.05;2.72;;;18.70;62.70;;;;;;5012570;28;20065;-78
2021/06/13 08:16:44;;;;;;;7.90;2.50;;;18.80;61.90;;;;;;5013339;28;20133;-78
2021/06/13 08:19:28;;;;;;;9.75;2.70;;;18.90;62.30;;;;;;4999732;28;20049;-78
2021/06/13 08:22:12;;;;;;;7.88;2.60;;;19.00;62.90;;;;;;5010967;28;20040;-79
2021/06/13 08:25:00;;;;;;;10.87;2.60;;;19.10;62.00;;;;;;5012591;28;20041;-77
2021/06/13 08:27:45;;;;;;;7.80;2.40;;;19.10;61.20;;;;;;5009594;28;20328;-76
2021/06/13 08:30:29;;;;;;;5.90;2.20;;;19.20;60.50;;;;;;4999023;28;20041;-74
2021/06/13 08:33:14;;;;;;;9.88;2.50;;;19.30;60.50;;;;;;5010360;28;20045;-73
2021/06/13 08:35:58;;;;;;;6.43;2.53;;;19.40;60.60;;;;;;5012059;28;20045;-80
2021/06/13 08:38:42;;;;;;;8.27;2.63;;;19.50;60.50;;;;;;5012869;28;20571;-77
2021/06/13 08:41:26;;;;;;;8.00;2.40;;;19.60;59.80;;;;;;4995673;28;20540;-78
2021/06/13 08:44:11;;;;;;;7.53;2.63;;;19.50;60.00;;;;;;5010485;28;20092;-80
2021/06/13 08:46:56;;;;;;;5.53;2.20;;;19.60;61.80;;;;;;5013071;28;20520;-86
2021/06/13 08:49:41;;;;;;;5.15;2.15;;;19.70;60.40;;;;;;5014888;28;20041;-84
2021/06/13 08:52:26;;;;;;;5.07;2.10;;;19.70;60.40;;;;;;5012270;28;20076;-83
2021/06/13 08:55:10;;;;;;;7.68;2.45;;;19.70;59.90;;;;;;4995821;28;20041;-78
2021/06/13 08:57:56;;;;;;;12.02;2.85;;;19.60;60.00;;;;;;5012533;28;20050;-78
2021/06/13 09:00:41;;;;;;;6.60;2.90;;;19.60;60.40;;;;;;5004654;28;20041;-77
2021/06/13 09:03:25;;;;;;;6.75;2.90;;;19.60;60.40;;;;;;5003995;28;20048;-77
2021/06/13 09:06:11;;;;;;;6.03;2.90;;;19.60;61.10;;;;;;5004053;28;20052;-80
2021/06/13 09:08:55;;;;;;;7.78;3.05;;;19.50;60.60;;;;;;5005622;28;20089;-78
2021/06/13 09:11:41;;;;;;;6.57;3.22;;;19.40;61.20;;;;;;5009876;28;20111;-79
2021/06/13 09:14:27;;;;;;;8.13;3.00;;;19.40;61.40;;;;;;5008980;28;20069;-79
2021/06/13 09:17:20;;;;;;;7.10;2.90;;;19.30;61.50;;;;;;4994598;28;20040;-79
2021/06/13 09:20:14;;;;;;;5.95;2.70;;;19.20;61.70;;;;;;5003124;28;20206;-79
2021/06/13 09:23:06;;;;;;;6.47;2.67;;;19.20;61.90;;;;;;5001148;28;20062;-80
2021/06/13 09:26:17;;;;;;;10.95;3.20;;;19.10;62.20;;;;;;5006426;28;20041;-80
2021/06/13 09:29:02;;;;;;;6.20;3.33;;;19.10;62.60;;;;;;5011812;28;20104;-80
2021/06/13 09:31:48;;;;;;;8.48;2.53;;;19.10;62.60;;;;;;5014219;28;20121;-80
2021/06/13 09:34:32;;;;;;;7.63;2.47;;;19.00;62.60;;;;;;5007482;28;20053;-78
2021/06/13 09:37:16;;;;;;;5.97;2.50;;;18.90;63.10;;;;;;5001960;28;20084;-77
2021/06/13 09:40:09;;;;;;;6.23;2.77;;;18.90;63.40;;;;;;5012703;28;20032;-78
2021/06/13 09:42:54;;;;;;;10.98;3.10;;;18.60;64.30;;;;;;5012544;28;20423;-79
2021/06/13 09:45:39;;;;;;;9.95;3.05;;;18.50;65.20;;;;;;5012580;28;20037;-78
2021/06/13 09:48:24;;;;;;;10.63;2.83;;;18.50;65.80;;;;;;5006581;28;20052;-80
2021/06/13 09:51:12;;;;;;;6.43;3.10;;;18.40;66.80;;;;;;5009109;28;20083;-79
2021/06/13 09:53:57;;;;;;;6.95;3.10;;;18.30;67.40;;;;;;5012002;28;20041;-79
2021/06/13 09:56:41;;;;;;;8.65;2.83;;;18.30;67.70;;;;;;5004672;28;20092;-79
2021/06/13 09:59:28;;;;;;;9.98;3.20;;;18.30;67.80;;;;;;5017155;28;20084;-79
2021/06/13 10:02:12;;;;;;;5.82;3.15;;;18.30;67.40;;;;;;5006389;28;20299;-79
2021/06/13 10:05:07;;;;;;;10.50;3.20;;;18.30;67.70;;;;;;5010490;28;20108;-79
2021/06/13 10:07:52;;;;;;;8.02;2.70;;;18.50;68.00;;;;;;5002232;28;20029;-79
2021/06/13 10:10:43;;;;;;;11.53;3.83;;;18.70;67.40;;;;;;5013037;28;20168;-77
2021/06/13 10:13:42;;;;;;;11.77;3.72;;;18.70;66.90;;;;;;5009648;28;20052;-78
2021/06/13 10:16:36;;;;;;;9.65;3.42;;;18.90;66.70;;;;;;5007740;28;20033;-78
2021/06/13 10:19:22;;;;;;;6.45;2.95;;;18.90;65.60;;;;;;5001292;28;20033;-79
2021/06/13 10:22:07;;;;;;;8.27;2.95;;;19.00;65.30;;;;;;4996815;28;20084;-78
2021/06/13 10:24:52;;;;;;;10.20;3.38;;;19.00;65.00;;;;;;5005239;28;20070;-78
2021/06/13 10:27:36;;;;;;;10.30;3.58;;;18.90;64.90;;;;;;4999606;28;20041;-78
2021/06/13 10:30:20;;;;;;;7.95;2.90;;;18.90;65.20;;;;;;4993237;28;20099;-78
2021/06/13 10:33:05;;;;;;;8.13;3.08;;;18.80;65.10;;;;;;5011457;28;20125;-79
2021/06/13 10:35:49;;;;;;;7.78;3.00;;;18.90;65.20;;;;;;5010921;28;20797;-78
2021/06/13 10:38:34;;;;;;;8.45;3.20;;;18.90;64.90;;;;;;5005770;28;20045;-79
2021/06/13 10:41:18;;;;;;;9.35;3.80;;;18.90;64.90;;;;;;5002003;28;20493;-79
2021/06/13 10:44:07;;;;;;;11.27;3.45;;;18.90;65.20;;;;;;4994382;28;20134;-80
2021/06/13 10:46:56;;;;;;;8.40;3.78;;;18.90;64.80;;;;;;5004825;28;20045;-78
2021/06/13 10:49:45;;;;;;;11.20;3.25;;;18.80;64.30;;;;;;4992801;28;20117;-80
2021/06/13 10:52:31;;;;;;;9.60;3.20;;;18.80;63.10;;;;;;5003571;28;20089;-79
2021/06/13 10:55:15;;;;;;;10.50;3.28;;;18.90;62.10;;;;;;5012202;28;20041;-78
2021/06/13 10:57:59;;;;;;;8.20;3.27;;;18.90;61.20;;;;;;5005860;28;20048;-78
2021/06/13 11:00:43;;;;;;;8.57;2.85;;;19.00;61.60;;;;;;4998088;28;20037;-78
2021/06/13 11:03:16;;;;;;;9.55;3.67;;;19.10;61.40;;;;;;5000211;28;20042;-78
2021/06/13 11:05:44;;;;;;;6.28;3.20;;;19.10;61.10;;;;;;5000678;28;20481;-79
2021/06/13 11:08:11;;;;;;;7.38;2.97;;;19.10;60.90;;;;;;5024872;28;20083;-78
2021/06/13 11:10:37;;;;;;;8.18;2.90;;;19.10;61.00;;;;;;5011668;28;20062;-79
2021/06/13 11:13:13;;;;;;;9.70;3.15;;;19.10;60.60;;;;;;5007202;28;20125;-79
2021/06/13 11:15:46;;;;;;;7.03;2.95;;;19.10;60.20;;;;;;5006900;28;20440;-77
2021/06/13 11:18:15;;;;;;;9.90;3.80;;;19.10;60.40;;;;;;5002254;28;20030;-78
2021/06/13 11:20:50;;;;;;;9.70;3.85;;;19.00;60.70;;;;;;5005547;28;20288;-78
2021/06/13 11:23:22;;;;;;;8.20;3.35;;;19.00;61.20;;;;;;5004221;28;20109;-78
2021/06/13 11:25:49;;;;;;;7.28;3.85;;;18.90;61.30;;;;;;5015879;28;20168;-77
2021/06/13 11:28:23;;;;;;;10.07;3.67;;;19.00;61.00;;;;;;5011824;28;20124;-76
2021/06/13 11:30:51;;;;;;;12.25;3.80;;;19.00;61.40;;;;;;4999688;28;20504;-75
2021/06/13 11:33:33;;;;;;;6.97;3.83;;;19.00;61.30;;;;;;5001344;28;20034;-77
2021/06/13 11:36:00;;;;;;;9.52;3.63;;;19.10;60.80;;;;;;5010846;28;20037;-77
2021/06/13 11:38:28;;;;;;;9.15;3.33;;;19.10;60.90;;;;;;5010893;28;20117;-73
2021/06/13 11:40:59;;;;;;;9.23;3.22;;;19.30;60.90;;;;;;4997675;28;20087;-73
2021/06/13 11:43:45;;;;;;;9.43;3.72;;;19.50;60.70;;;;;;4996138;28;20100;-74
2021/06/13 11:46:36;;;;;;;9.43;4.47;;;19.70;60.60;;;;;;5006152;28;20052;-71
2021/06/13 11:49:41;;;;;;;10.88;4.25;;;19.80;59.80;;;;;;5014152;28;20115;-73
2021/06/13 11:52:49;;;;;;;6.60;3.17;;;19.90;59.70;;;;;;5014006;28;20084;-77
2021/06/13 11:55:52;;;;;;;8.48;3.10;;;20.00;60.10;;;;;;5006904;28;20081;-77
2021/06/13 11:58:36;;;;;;;6.65;3.22;;;20.20;60.60;;;;;;4996759;28;20494;-77
2021/06/13 12:01:22;;;;;;;7.43;3.20;;;20.40;58.70;;;;;;5013788;28;20044;-76
2021/06/13 12:04:10;;;;;;;10.50;3.22;;;20.40;58.10;;;;;;5009712;28;20596;-78
2021/06/13 12:06:56;;;;;;;11.88;3.47;;;20.50;57.90;;;;;;5008551;28;20045;-77
2021/06/13 12:09:41;;;;;;;7.68;3.47;;;20.50;57.90;;;;;;5001842;28;20100;-77
2021/06/13 12:12:26;;;;;;;9.50;4.95;;;20.70;58.00;;;;;;5000955;28;20032;-73
2021/06/13 12:15:10;;;;;;;11.43;3.53;;;20.90;57.00;;;;;;5001972;28;20033;-75
2021/06/13 12:17:54;;;;;;;6.60;3.45;;;20.80;56.50;;;;;;5004032;28;20049;-73
2021/06/13 12:20:39;;;;;;;9.73;3.50;;;20.90;57.10;;;;;;5016343;28;20041;-77
2021/06/13 12:23:35;;;;;;;9.32;3.45;;;21.10;55.60;;;;;;5006756;28;20073;-78
2021/06/13 12:29:38;;;;;;;6.88;3.30;;;21.20;54.50;;;;;;5002151;28;20417;-78
2021/06/13 12:32:23;;;;;;;7.60;3.28;;;21.20;54.70;;;;;;5008854;28;20104;-77
2021/06/13 12:35:13;;;;;;;6.93;3.40;;;21.30;55.20;;;;;;5008479;28;20053;-77
2021/06/13 12:38:16;;;;;;;10.00;3.47;;;21.50;55.30;;;;;;5006109;28;20084;-79
2021/06/13 12:41:00;;;;;;;8.25;3.30;;;21.60;53.50;;;;;;5011530;28;20037;-79
2021/06/13 12:43:46;;;;;;;6.47;2.95;;;21.70;54.30;;;;;;5011468;28;20567;-79
2021/06/13 12:46:38;;;;;;;8.77;3.35;;;21.80;53.90;;;;;;5008193;28;20045;-79
2021/06/13 12:49:22;;;;;;;7.18;3.15;;;21.80;53.00;;;;;;4995195;28;20061;-79
2021/06/13 12:52:17;;;;;;;9.98;3.70;;;21.80;52.90;;;;;;4999248;28;20033;-77
2021/06/13 12:55:05;;;;;;;11.93;3.60;;;21.80;52.90;;;;;;5010270;28;20116;-79
2021/06/13 12:57:52;;;;;;;9.88;3.92;;;21.80;52.90;;;;;;5008531;28;20351;-80
2021/06/13 13:00:36;;;;;;;6.63;3.33;;;21.70;52.10;;;;;;5015376;28;20037;-80
2021/06/13 13:03:23;;;;;;;12.40;3.83;;;21.60;52.20;;;;;;5007918;28;20407;-79
2021/06/13 13:06:09;;;;;;;8.75;3.92;;;21.70;53.20;;;;;;5009047;28;20571;-79
2021/06/13 13:08:53;;;;;;;7.72;3.88;;;21.90;52.50;;;;;;5000405;28;20414;-81
2021/06/13 13:11:43;;;;;;;5.93;3.38;;;21.90;53.00;;;;;;5010085;28;20080;-78
2021/06/13 13:14:28;;;;;;;7.60;4.10;;;22.00;51.80;;;;;;5025105;28;20056;-80
2021/06/13 13:17:25;;;;;;;10.02;4.22;;;21.90;49.80;;;;;;5013584;28;20117;-79
2021/06/13 13:20:20;;;;;;;8.45;3.88;;;21.90;49.40;;;;;;5038948;28;20037;-79
2021/06/13 13:23:09;;;;;;;7.57;3.65;;;22.00;49.70;;;;;;5022988;28;20121;-79
2021/06/13 13:26:01;;;;;;;6.22;3.20;;;22.00;49.60;;;;;;5021536;28;20073;-78
2021/06/13 13:28:56;;;;;;;12.07;4.18;;;21.80;49.70;;;;;;5022139;28;20088;-78
2021/06/13 13:31:40;;;;;;;;;;;21.70;50.30;;;;;;5022346;28;20029;-77
2021/06/13 13:34:32;;;;;;;9.45;3.55;;;21.60;49.90;;;;;;5010027;28;19916;-78
2021/06/13 13:37:17;;;;;;;9.48;4.22;;;21.60;50.40;;;;;;5025884;28;20083;-79
2021/06/13 13:40:08;;;;;;;;;;;21.60;51.40;;;;;;5022700;28;20049;-78
2021/06/13 13:43:02;;;;;;;7.15;3.80;;;21.80;51.70;;;;;;5015514;28;19920;-78
2021/06/13 13:45:46;;;;;;;9.20;3.92;;;21.90;50.50;;;;;;5018273;28;20036;-78
2021/06/13 13:48:30;;;;;;;8.73;4.55;;;22.10;50.40;;;;;;5017482;28;20091;-78
2021/06/13 13:51:14;;;;;;;6.97;3.65;;;22.20;49.40;;;;;;5002960;28;20130;-79
2021/06/13 13:53:58;;;;;;;5.22;3.40;;;22.30;49.30;;;;;;5026440;28;20044;-78
2021/06/13 13:56:52;;;;;;;6.55;3.60;;;22.40;48.80;;;;;;5012949;28;20052;-79
2021/06/13 13:59:38;;;;;;;6.68;3.92;;;22.10;48.70;;;;;;4995250;28;20041;-80
2021/06/13 14:02:22;;;;;;;7.60;4.10;;;22.20;49.20;;;;;;5006161;28;20048;-79
2021/06/13 14:05:06;;;;;;;7.55;4.28;;;22.50;49.20;;;;;;5009934;28;20092;-78
2021/06/13 14:07:50;;;;;;;9.02;3.78;;;22.70;49.20;;;;;;5001369;28;20044;-78
2021/06/13 14:10:34;;;;;;;10.80;4.05;;;23.00;48.70;;;;;;5000307;28;20057;-80
2021/06/13 14:13:19;;;;;;;7.07;4.20;;;23.10;47.50;;;;;;5007439;28;20092;-79
2021/06/13 14:16:04;;;;;;;7.28;3.90;;;23.20;47.40;;;;;;4998013;28;20076;-79
2021/06/13 14:18:47;;;;;;;7.00;3.67;;;23.30;46.80;;;;;;5010355;28;20390;-77
2021/06/13 14:21:31;;;;;;;7.23;4.03;;;23.20;46.60;;;;;;5012790;28;20041;-80